Time;durP1;ratioP1;P1;durP2;ratioP2;P2;SDS_P1;SDS_P2;PMS_P1;PMS_P2;Temp;Humidity;BMP_temperature;BMP_pressure;BME280_temperature;BME280_humidity;BME280_pressure;Samples;Min_cycle;Max_cycle;Signal;HPM_P1;HPM_P2
2021/10/04 00:01:29;;;;;;;7.13;1.42;;;11.50;99.90;;;11.43;100.00;100941.97;4117125;28;20117;-71
2021/10/04 00:03:30;;;;;;;4.47;1.25;;;11.60;99.90;;;11.43;100.00;100941.97;4116859;28;20152;-71
2021/10/04 00:05:31;;;;;;;8.40;2.00;;;11.60;99.90;;;11.30;100.00;100937.09;4117239;28;20387;-71
2021/10/04 00:07:32;;;;;;;4.43;1.92;;;11.60;99.90;;;11.27;100.00;100939.22;4116025;28;20514;-71
2021/10/04 00:09:33;;;;;;;9.10;1.40;;;11.60;99.90;;;11.31;100.00;100936.13;4115844;28;20035;-71
2021/10/04 00:11:34;;;;;;;3.70;1.75;;;11.60;99.90;;;11.29;100.00;100937.25;4131802;28;20027;-71
2021/10/04 00:13:35;;;;;;;8.88;1.40;;;11.60;99.90;;;11.28;100.00;100944.34;4115737;28;20541;-71
2021/10/04 00:15:36;;;;;;;6.60;1.48;;;11.50;99.90;;;11.35;100.00;100949.84;4148230;28;20086;-71
2021/10/04 00:17:37;;;;;;;5.18;1.20;;;11.60;99.90;;;11.57;100.00;100962.50;4116857;28;20027;-71
2021/10/04 00:19:38;;;;;;;8.15;1.70;;;11.70;99.90;;;11.52;100.00;100967.44;4115540;28;20054;-71
2021/10/04 00:21:39;;;;;;;7.57;1.92;;;11.70;99.90;;;11.63;100.00;100949.50;4115669;28;20031;-70
2021/10/04 00:23:40;;;;;;;6.13;1.83;;;11.90;99.90;;;11.58;100.00;100948.31;4115861;28;20027;-71
2021/10/04 00:25:41;;;;;;;8.57;2.03;;;12.00;99.90;;;11.75;100.00;100944.78;4115768;28;20038;-71
2021/10/04 00:27:42;;;;;;;5.30;1.23;;;12.10;99.90;;;11.85;100.00;100944.69;4116912;28;20038;-70
2021/10/04 00:29:43;;;;;;;11.13;2.08;;;12.10;99.90;;;12.06;100.00;100948.56;4116712;28;20069;-70
2021/10/04 00:31:44;;;;;;;8.77;2.60;;;12.20;99.90;;;12.08;100.00;100951.88;4099556;28;20398;-70
2021/10/04 00:33:45;;;;;;;13.27;2.33;;;12.30;99.90;;;11.98;100.00;100956.44;4131519;28;20022;-70
2021/10/04 00:35:46;;;;;;;7.18;1.60;;;12.30;99.90;;;11.94;100.00;100955.13;4115618;28;20030;-70
2021/10/04 00:37:48;;;;;;;10.57;2.28;;;12.30;99.90;;;11.82;100.00;100950.28;4115550;28;20057;-70
2021/10/04 00:39:49;;;;;;;8.48;1.77;;;12.20;99.90;;;11.78;100.00;100956.84;4118050;28;20023;-70
2021/10/04 00:41:51;;;;;;;9.23;1.40;;;12.20;99.90;;;11.79;100.00;100966.47;4119492;28;20114;-70
2021/10/04 00:43:52;;;;;;;8.32;1.70;;;12.10;99.90;;;11.85;100.00;100964.00;4118270;28;20065;-70
2021/10/04 00:45:54;;;;;;;11.13;1.48;;;12.20;99.90;;;11.87;100.00;100956.75;4119364;28;20533;-70
2021/10/04 00:47:56;;;;;;;8.75;2.00;;;12.20;99.90;;;11.75;100.00;100955.38;4118262;28;20586;-70
2021/10/04 00:49:57;;;;;;;8.63;1.48;;;12.30;99.90;;;11.96;100.00;100962.88;4119294;28;20116;-70
2021/10/04 00:51:58;;;;;;;5.68;1.45;;;12.20;99.90;;;12.14;100.00;100956.50;4118164;28;20023;-70
2021/10/04 00:53:59;;;;;;;6.53;1.75;;;12.30;99.90;;;12.25;100.00;100952.72;4118038;28;20065;-70
2021/10/04 00:56:00;;;;;;;7.25;2.28;;;12.50;99.90;;;12.05;100.00;100957.47;4119428;28;20045;-70
2021/10/04 00:58:01;;;;;;;6.15;1.33;;;12.50;99.90;;;11.92;100.00;100957.09;4118210;28;20033;-70
2021/10/04 01:00:06;;;;;;;8.38;1.73;;;12.50;99.90;;;11.86;100.00;100963.00;4118023;28;20134;-70
2021/10/04 01:02:08;;;;;;;3.30;1.23;;;12.40;99.90;;;11.96;100.00;100957.59;4119124;28;20383;-70
2021/10/04 01:04:09;;;;;;;7.10;2.08;;;12.40;99.90;;;12.03;100.00;100961.28;4119103;28;20026;-70
2021/10/04 01:06:10;;;;;;;12.55;3.25;;;12.40;99.90;;;12.15;100.00;100968.75;4119176;28;20027;-70
2021/10/04 01:08:10;;;;;;;7.95;2.85;;;12.50;99.90;;;12.06;100.00;100960.94;4119094;28;20027;-70
2021/10/04 01:10:13;;;;;;;6.55;1.25;;;12.50;99.90;;;12.04;100.00;100966.38;4117811;28;20061;-70
2021/10/04 01:12:14;;;;;;;8.73;2.30;;;12.40;99.90;;;12.09;100.00;100968.56;4117884;28;20086;-70
2021/10/04 01:14:15;;;;;;;8.38;1.63;;;12.40;99.90;;;11.93;100.00;100964.03;4117778;28;20054;-71
2021/10/04 01:16:16;;;;;;;12.50;2.05;;;12.40;99.90;;;12.12;100.00;100971.72;4117881;28;20034;-71
2021/10/04 01:18:17;;;;;;;7.07;1.85;;;12.40;99.90;;;11.99;100.00;100968.69;4117501;28;20027;-71
2021/10/04 01:20:25;;;;;;;7.22;2.15;;;12.40;99.90;;;12.04;100.00;100976.97;4119073;28;20159;-70
2021/10/04 01:22:26;;;;;;;4.95;2.47;;;12.30;99.90;;;11.98;100.00;100974.94;4149949;28;20034;-71
2021/10/04 01:24:27;;;;;;;7.50;1.52;;;12.40;99.90;;;11.89;100.00;100962.69;4118916;28;20066;-71
2021/10/04 01:26:28;;;;;;;11.02;1.77;;;12.30;99.90;;;11.92;100.00;100974.75;4101577;28;20156;-71
2021/10/04 01:28:29;;;;;;;7.65;2.00;;;12.30;99.90;;;11.89;100.00;100967.97;4117788;28;20030;-71
2021/10/04 01:30:33;;;;;;;3.78;1.00;;;12.30;99.90;;;11.83;100.00;100965.13;4117701;28;20027;-71
2021/10/04 01:32:34;;;;;;;6.55;1.55;;;12.30;99.90;;;11.78;100.00;100962.97;4117679;28;20630;-71
2021/10/04 01:34:35;;;;;;;6.60;1.95;;;12.30;99.90;;;11.75;100.00;100968.59;4118746;28;20037;-71
2021/10/04 01:36:36;;;;;;;8.77;1.60;;;12.20;99.90;;;11.75;100.00;100967.75;4101511;28;20028;-71
2021/10/04 01:38:37;;;;;;;6.13;1.83;;;12.20;99.90;;;11.80;100.00;100974.22;4133646;28;20030;-71
2021/10/04 01:40:39;;;;;;;11.02;1.52;;;12.30;99.90;;;11.80;100.00;100962.84;4149930;28;20094;-71
2021/10/04 01:42:42;;;;;;;4.55;1.45;;;12.20;99.90;;;11.82;100.00;100961.69;4118551;28;20401;-71
2021/10/04 01:44:44;;;;;;;4.45;1.10;;;12.20;99.90;;;11.76;100.00;100967.59;4117644;28;20086;-71
2021/10/04 01:46:44;;;;;;;6.60;2.30;;;12.20;99.90;;;11.90;100.00;100958.22;4118706;28;20041;-71
2021/10/04 01:48:46;;;;;;;8.70;1.48;;;12.20;99.90;;;11.78;100.00;100956.84;4118553;28;20027;-71
2021/10/04 01:50:47;;;;;;;12.20;2.00;;;12.20;99.90;;;11.70;100.00;100952.38;4117467;28;20552;-71
2021/10/04 01:52:48;;;;;;;7.03;1.58;;;12.20;99.90;;;11.88;100.00;100953.13;4117284;28;20023;-71
2021/10/04 01:54:49;;;;;;;5.82;1.77;;;12.10;99.90;;;11.90;100.00;100964.34;4118729;28;20497;-71
2021/10/04 01:56:50;;;;;;;3.80;1.42;;;12.20;99.90;;;11.77;100.00;100961.31;4117603;28;20031;-71
2021/10/04 01:58:51;;;;;;;7.10;1.23;;;12.10;99.90;;;11.70;100.00;100954.19;4117331;28;20088;-71
2021/10/04 02:00:52;;;;;;;4.90;1.17;;;12.10;99.90;;;11.60;100.00;100952.47;4118748;28;20023;-71
2021/10/04 02:02:54;;;;;;;7.82;1.38;;;12.10;99.90;;;11.56;100.00;100945.00;4118483;28;20123;-71
2021/10/04 02:04:55;;;;;;;6.45;1.95;;;12.00;99.90;;;11.67;100.00;100944.72;4117338;28;20153;-71
2021/10/04 02:06:56;;;;;;;4.55;1.15;;;12.00;99.90;;;11.66;100.00;100941.25;4117122;28;20034;-70
2021/10/04 02:08:57;;;;;;;6.45;1.35;;;12.00;99.90;;;11.75;100.00;100942.16;4118563;28;20058;-71
2021/10/04 02:10:59;;;;;;;5.28;1.88;;;12.10;99.90;;;11.71;100.00;100953.22;4118447;28;20038;-71
2021/10/04 02:13:02;;;;;;;5.60;1.73;;;12.10;99.90;;;11.72;100.00;100942.47;4133163;28;20026;-71
2021/10/04 02:15:05;;;;;;;8.57;1.77;;;12.10;99.90;;;11.72;100.00;100950.41;4118138;28;20053;-70
2021/10/04 02:17:06;;;;;;;3.78;1.30;;;12.10;99.90;;;11.70;100.00;100948.91;4118484;28;20027;-71
2021/10/04 02:19:08;;;;;;;8.25;1.58;;;12.10;99.90;;;11.77;100.00;100956.03;4118109;28;20031;-71
2021/10/04 02:21:09;;;;;;;5.85;1.38;;;12.10;99.90;;;11.77;100.00;100953.38;4117134;28;20030;-71
2021/10/04 02:23:12;;;;;;;7.15;1.95;;;12.10;99.90;;;11.73;100.00;100948.59;4100957;28;20440;-71
2021/10/04 02:25:14;;;;;;;6.80;1.95;;;12.10;99.90;;;11.68;100.00;100951.66;4117243;28;20065;-71
2021/10/04 02:27:15;;;;;;;11.23;1.45;;;12.10;99.90;;;11.75;100.00;100951.88;4117017;28;20027;-71
2021/10/04 02:29:16;;;;;;;6.88;1.30;;;12.10;99.90;;;11.93;100.00;100952.63;4116985;28;20081;-71
2021/10/04 02:31:17;;;;;;;6.35;1.35;;;12.10;99.90;;;11.83;100.00;100951.91;4117963;28;20101;-70
2021/10/04 02:33:19;;;;;;;5.85;1.75;;;12.20;99.90;;;11.79;100.00;100950.59;4116786;28;20027;-71
2021/10/04 02:35:21;;;;;;;4.90;1.88;;;12.20;99.90;;;11.80;100.00;100942.50;4118151;28;20086;-71
2021/10/04 02:37:22;;;;;;;5.13;1.63;;;12.20;99.90;;;11.73;100.00;100936.22;4118063;28;20038;-71
2021/10/04 02:39:23;;;;;;;7.97;1.30;;;12.20;99.90;;;11.73;100.00;100932.72;4117957;28;20035;-71
2021/10/04 02:41:24;;;;;;;2.58;1.10;;;12.20;99.90;;;11.68;100.00;100937.63;4116854;28;20498;-71
2021/10/04 02:43:25;;;;;;;9.98;1.70;;;12.20;99.90;;;11.83;100.00;100939.53;4116799;28;20436;-71
2021/10/04 02:45:27;;;;;;;4.95;1.83;;;12.20;99.90;;;11.83;100.00;100938.69;4116836;28;20023;-70
2021/10/04 02:47:27;;;;;;;6.20;1.20;;;12.30;99.90;;;11.75;100.00;100942.16;4116677;28;20035;-70
2021/10/04 02:49:28;;;;;;;5.13;1.73;;;12.30;99.90;;;11.82;100.00;100937.91;4117605;28;20027;-71
2021/10/04 02:51:29;;;;;;;5.15;1.73;;;12.20;99.90;;;11.83;100.00;100939.53;4117933;28;20035;-71
2021/10/04 02:53:30;;;;;;;6.10;1.70;;;12.30;99.90;;;11.85;100.00;100942.03;4116743;28;20054;-71
2021/10/04 02:55:31;;;;;;;6.07;1.35;;;12.30;99.90;;;11.86;100.00;100933.94;4116559;28;20134;-71
2021/10/04 02:57:32;;;;;;;5.07;1.20;;;12.30;99.90;;;11.87;100.00;100940.06;4132927;28;20027;-71
2021/10/04 02:59:33;;;;;;;5.93;1.48;;;12.40;99.90;;;11.95;100.00;100948.84;4116734;28;20083;-71
2021/10/04 03:01:34;;;;;;;7.70;1.52;;;12.30;99.90;;;12.11;100.00;100950.72;4117447;28;20501;-71
2021/10/04 03:03:35;;;;;;;7.93;2.17;;;12.40;99.90;;;11.96;100.00;100941.75;4117514;28;20069;-71
2021/10/04 03:05:36;;;;;;;6.32;1.27;;;12.40;99.90;;;12.12;100.00;100947.91;4116671;28;20054;-70
2021/10/04 03:07:37;;;;;;;5.55;1.70;;;12.40;99.90;;;11.97;100.00;100952.16;4117796;28;20113;-70
2021/10/04 03:09:38;;;;;;;7.57;1.50;;;12.40;99.90;;;11.90;100.00;100951.13;4117743;28;20031;-70
2021/10/04 03:11:39;;;;;;;5.38;1.58;;;12.30;99.90;;;11.87;100.00;100953.25;4132382;28;20473;-70
2021/10/04 03:13:40;;;;;;;8.02;1.98;;;12.40;99.90;;;11.86;100.00;100952.44;4116635;28;20098;-71
2021/10/04 03:15:42;;;;;;;4.35;1.30;;;12.40;99.90;;;11.94;100.00;100944.56;4132631;28;20447;-70
2021/10/04 03:17:42;;;;;;;11.48;1.55;;;12.40;99.90;;;11.89;100.00;100936.25;4117655;28;20615;-70
2021/10/04 03:19:44;;;;;;;7.40;1.42;;;12.40;99.90;;;11.88;100.00;100942.56;4116117;28;20027;-70
2021/10/04 03:21:45;;;;;;;6.10;2.70;;;12.40;99.90;;;11.85;100.00;100939.38;4116478;28;20038;-70
2021/10/04 03:23:46;;;;;;;9.75;2.65;;;12.30;99.90;;;11.80;100.00;100942.50;4116345;28;20084;-70
2021/10/04 03:25:47;;;;;;;9.82;1.83;;;12.30;99.90;;;11.75;100.00;100934.22;4116414;28;20545;-70
2021/10/04 03:27:49;;;;;;;4.03;1.50;;;12.30;99.90;;;11.71;100.00;100932.88;4116104;28;20034;-70
2021/10/04 03:29:50;;;;;;;5.97;1.67;;;12.20;99.90;;;11.80;100.00;100939.84;4116509;28;20031;-70
2021/10/04 03:31:51;;;;;;;10.00;2.10;;;12.20;99.90;;;12.08;100.00;100948.38;4116313;28;20042;-70
2021/10/04 03:33:52;;;;;;;11.57;1.80;;;12.30;99.90;;;11.97;100.00;100960.09;4116097;28;20062;-70
2021/10/04 03:35:52;;;;;;;5.70;1.60;;;12.30;99.90;;;11.98;100.00;100963.53;4117336;28;20402;-70
2021/10/04 03:37:54;;;;;;;12.60;2.60;;;12.30;99.90;;;12.06;100.00;100961.78;4117529;28;20175;-70
2021/10/04 03:39:55;;;;;;;11.73;2.40;;;12.40;99.90;;;12.14;100.00;100960.97;4132364;28;20022;-70
2021/10/04 03:41:56;;;;;;;7.13;2.60;;;12.50;99.90;;;12.20;100.00;100955.88;4117336;28;20085;-70
2021/10/04 03:43:57;;;;;;;6.82;1.48;;;12.50;99.90;;;12.27;100.00;100949.94;4117341;28;20019;-70
2021/10/04 03:45:58;;;;;;;9.90;1.80;;;12.60;99.90;;;12.29;100.00;100961.19;4116150;28;20126;-70
2021/10/04 03:47:59;;;;;;;5.35;2.05;;;12.60;99.90;;;12.29;100.00;100947.94;4117196;28;20038;-70
2021/10/04 03:50:00;;;;;;;6.88;1.42;;;12.70;99.90;;;12.13;100.00;100946.91;4117096;28;20058;-70
2021/10/04 03:52:01;;;;;;;5.75;1.27;;;12.70;99.90;;;12.20;100.00;100942.66;4117234;28;20102;-70
2021/10/04 03:54:03;;;;;;;5.90;1.98;;;12.60;99.90;;;12.20;100.00;100936.53;4116232;28;20239;-70
2021/10/04 03:56:04;;;;;;;8.18;2.20;;;12.60;99.90;;;12.16;100.00;100949.25;4117293;28;20018;-70
2021/10/04 03:58:06;;;;;;;6.07;1.48;;;12.60;99.90;;;12.18;100.00;100964.97;4117234;28;20049;-70
2021/10/04 04:00:12;;;;;;;7.47;1.33;;;12.70;99.90;;;12.26;100.00;100966.78;4117209;28;20027;-70
2021/10/04 04:02:13;;;;;;;6.78;1.55;;;12.70;99.90;;;12.19;100.00;100961.31;4115913;28;20449;-71
2021/10/04 04:04:14;;;;;;;7.93;1.70;;;12.60;99.90;;;12.04;100.00;100949.69;4115885;28;20030;-71
2021/10/04 04:06:15;;;;;;;8.48;2.33;;;12.60;99.90;;;12.06;100.00;100958.31;4117197;28;20440;-71
2021/10/04 04:08:15;;;;;;;7.50;1.80;;;12.60;99.90;;;12.11;100.00;100956.84;4117119;28;20080;-70
2021/10/04 04:10:17;;;;;;;5.28;1.38;;;12.50;99.90;;;12.09;100.00;100942.97;4117024;28;20039;-70
2021/10/04 04:12:18;;;;;;;7.63;2.00;;;12.60;99.90;;;12.19;100.00;100950.72;4115950;28;20042;-71
2021/10/04 04:14:20;;;;;;;5.22;1.50;;;12.60;99.90;;;12.14;100.00;100942.47;4117574;28;20561;-70
2021/10/04 04:16:21;;;;;;;3.65;1.20;;;12.60;99.90;;;12.05;100.00;100941.59;4134751;28;20086;-70
2021/10/04 04:18:22;;;;;;;5.55;1.70;;;12.60;99.90;;;12.02;100.00;100946.38;4134627;28;20382;-70
2021/10/04 04:20:23;;;;;;;3.85;1.27;;;12.50;99.90;;;12.05;100.00;100941.59;4119901;28;20125;-70
2021/10/04 04:22:24;;;;;;;2.72;1.13;;;12.50;99.90;;;12.04;100.00;100945.22;4134696;28;20513;-70
2021/10/04 04:24:25;;;;;;;6.40;1.60;;;12.50;99.90;;;12.01;100.00;100942.91;4118665;28;20025;-70
2021/10/04 04:26:26;;;;;;;4.82;0.93;;;12.40;99.90;;;11.97;100.00;100946.03;4118533;28;20058;-70
2021/10/04 04:28:27;;;;;;;2.63;1.00;;;12.30;99.90;;;12.05;100.00;100952.19;4119800;28;20035;-70
2021/10/04 04:30:28;;;;;;;4.97;1.63;;;12.30;99.90;;;11.90;100.00;100951.13;4118549;28;20034;-70
2021/10/04 04:32:29;;;;;;;4.82;1.10;;;12.30;99.90;;;11.95;100.00;100951.47;4119608;28;20027;-70
2021/10/04 04:34:30;;;;;;;5.75;1.00;;;12.20;99.90;;;11.96;100.00;100961.06;4119342;28;20041;-70
2021/10/04 04:36:32;;;;;;;5.38;1.10;;;12.20;99.90;;;11.91;100.00;100965.19;4119724;28;20036;-70
2021/10/04 04:38:32;;;;;;;5.57;1.17;;;12.20;99.90;;;11.86;100.00;100952.44;4118511;28;20482;-70
2021/10/04 04:40:34;;;;;;;3.53;1.10;;;12.20;99.90;;;11.79;100.00;100966.47;4119602;28;20035;-70
2021/10/04 04:42:34;;;;;;;4.45;1.17;;;12.20;99.90;;;11.72;100.00;100968.91;4134475;28;20096;-70
2021/10/04 04:44:35;;;;;;;4.82;1.60;;;12.10;99.90;;;11.79;100.00;100962.00;4119567;28;20449;-70
2021/10/04 04:46:36;;;;;;;5.15;1.38;;;12.10;99.90;;;11.71;100.00;100961.13;4118534;28;20117;-70
2021/10/04 04:48:38;;;;;;;3.70;1.17;;;12.10;99.90;;;11.68;100.00;100955.13;4119319;28;20076;-71
2021/10/04 04:50:39;;;;;;;7.63;1.55;;;12.10;99.90;;;11.65;100.00;100959.91;4119433;28;20514;-70
2021/10/04 04:52:42;;;;;;;5.28;2.17;;;12.00;99.90;;;11.68;100.00;100964.88;4119526;28;20035;-70
2021/10/04 04:54:43;;;;;;;2.72;1.23;;;12.00;99.90;;;11.64;100.00;100961.75;4134397;28;20231;-71
2021/10/04 04:56:43;;;;;;;6.22;1.33;;;12.00;99.90;;;11.59;100.00;100952.59;4118282;28;20052;-70
2021/10/04 04:58:44;;;;;;;6.00;1.10;;;11.90;99.90;;;11.58;100.00;100961.53;4150279;28;20092;-70
2021/10/04 05:00:45;;;;;;;4.20;1.35;;;12.00;99.90;;;11.47;100.00;100959.97;4118160;28;20559;-71
2021/10/04 05:02:47;;;;;;;4.72;1.25;;;11.90;99.90;;;11.42;100.00;100956.16;4119140;28;20457;-70
2021/10/04 05:04:48;;;;;;;8.18;1.88;;;11.80;99.90;;;11.36;100.00;100954.13;4118046;28;20075;-71
2021/10/04 05:06:49;;;;;;;6.35;1.10;;;11.80;99.90;;;11.52;100.00;100960.34;4119172;28;20486;-71
2021/10/04 05:08:50;;;;;;;8.15;1.77;;;11.80;99.90;;;11.51;100.00;100963.97;4118111;28;20026;-71
2021/10/04 05:10:51;;;;;;;4.38;1.52;;;11.80;99.90;;;11.42;100.00;100964.91;4117863;28;20034;-71
2021/10/04 05:12:52;;;;;;;5.53;1.30;;;11.80;99.90;;;11.49;100.00;100958.03;4119025;28;20402;-71
2021/10/04 05:14:53;;;;;;;4.13;1.13;;;11.80;99.90;;;11.40;100.00;100960.75;4133801;28;20078;-71
2021/10/04 05:16:54;;;;;;;8.02;1.73;;;11.70;99.90;;;11.45;100.00;100958.47;4119301;28;20030;-71
2021/10/04 05:18:55;;;;;;;5.47;1.27;;;11.70;99.90;;;11.28;100.00;100940.88;4119000;28;20035;-71
2021/10/04 05:20:56;;;;;;;4.93;1.73;;;11.80;99.90;;;11.35;100.00;100961.22;4119103;28;20152;-71
2021/10/04 05:22:57;;;;;;;6.03;1.17;;;11.80;99.90;;;11.35;100.00;100969.13;4117854;28;20437;-71
2021/10/04 05:24:58;;;;;;;5.13;1.40;;;11.70;99.90;;;11.29;100.00;100959.19;4133834;28;20500;-71
2021/10/04 05:27:00;;;;;;;6.63;1.65;;;11.70;99.90;;;11.27;100.00;100961.16;4119185;28;20031;-70
2021/10/04 05:29:00;;;;;;;8.07;2.13;;;11.60;99.90;;;11.28;100.00;100962.00;4118893;28;20065;-70
2021/10/04 05:31:01;;;;;;;9.07;2.10;;;11.70;99.90;;;11.37;100.00;100961.91;4118862;28;20035;-71
2021/10/04 05:33:03;;;;;;;4.00;1.52;;;11.70;99.90;;;11.34;100.00;100958.75;4118710;28;20034;-71
2021/10/04 05:35:05;;;;;;;8.35;2.28;;;11.70;99.90;;;11.35;100.00;100957.78;4117724;28;20555;-70
2021/10/04 05:37:06;;;;;;;4.47;1.50;;;11.70;99.90;;;11.38;100.00;100954.81;4117739;28;20023;-71
2021/10/04 05:39:07;;;;;;;3.55;1.30;;;11.70;99.90;;;11.37;100.00;100947.88;4118855;28;20034;-71
2021/10/04 05:41:10;;;;;;;4.78;1.08;;;11.80;99.90;;;11.40;100.00;100955.47;4118862;28;20026;-71
2021/10/04 05:43:11;;;;;;;4.05;0.93;;;11.70;99.90;;;11.40;100.00;100947.56;4118889;28;20031;-71
2021/10/04 05:45:15;;;;;;;1.83;0.90;;;11.80;99.90;;;11.34;100.00;100940.25;4117607;28;20064;-71
2021/10/04 05:47:17;;;;;;;5.00;1.13;;;11.80;99.90;;;11.33;100.00;100941.22;4118675;28;20038;-71
2021/10/04 05:49:18;;;;;;;2.42;0.90;;;11.70;99.90;;;11.48;100.00;100937.03;4118464;28;20035;-71
2021/10/04 05:51:20;;;;;;;5.10;1.60;;;11.70;99.90;;;11.32;100.00;100944.88;4117566;28;20112;-71
2021/10/04 05:53:21;;;;;;;4.55;1.20;;;11.70;99.90;;;11.31;100.00;100946.69;4118696;28;20030;-71
2021/10/04 05:55:22;;;;;;;5.53;1.60;;;11.70;99.90;;;11.30;100.00;100944.19;4117429;28;20506;-71
2021/10/04 05:57:23;;;;;;;8.93;1.35;;;11.70;99.90;;;11.37;100.00;100948.69;4117552;28;20431;-71
2021/10/04 05:59:24;;;;;;;4.38;1.40;;;11.60;99.90;;;11.38;100.00;100938.97;4117456;28;20091;-71
2021/10/04 06:01:25;;;;;;;2.00;1.00;;;11.70;99.90;;;11.41;100.00;100946.59;4120061;28;20023;-70
2021/10/04 06:03:26;;;;;;;3.65;1.60;;;11.70;99.90;;;11.44;100.00;100941.00;4118420;28;20465;-71
2021/10/04 06:05:27;;;;;;;6.28;2.00;;;11.70;99.90;;;11.55;100.00;100948.63;4118703;28;20106;-70
2021/10/04 06:07:28;;;;;;;7.38;2.10;;;11.80;99.90;;;11.58;100.00;100943.03;4118919;28;20172;-71
2021/10/04 06:09:29;;;;;;;5.38;1.08;;;11.80;99.90;;;11.51;100.00;100947.28;4119856;28;20110;-70
2021/10/04 06:11:31;;;;;;;5.38;1.20;;;11.80;99.90;;;11.46;100.00;100946.94;4120002;28;20033;-70
2021/10/04 06:13:32;;;;;;;5.90;2.15;;;11.80;99.90;;;11.37;100.00;100959.28;4119224;28;20023;-70
2021/10/04 06:15:33;;;;;;;8.20;2.08;;;11.80;99.90;;;11.59;100.00;100963.16;4120571;28;20027;-71
2021/10/04 06:17:34;;;;;;;4.43;1.65;;;11.80;99.90;;;11.56;100.00;100971.41;4118686;28;20031;-71
2021/10/04 06:19:35;;;;;;;6.43;3.05;;;11.90;99.90;;;11.57;100.00;100970.44;4119584;28;20027;-71
2021/10/04 06:21:36;;;;;;;4.40;1.85;;;12.00;99.90;;;11.59;100.00;100981.66;4120136;28;20482;-71
2021/10/04 06:23:37;;;;;;;8.27;1.42;;;12.00;99.90;;;11.71;100.00;100975.16;4119524;28;20057;-71
2021/10/04 06:25:38;;;;;;;3.25;1.08;;;12.10;99.90;;;11.89;100.00;100978.56;4119738;28;20030;-70
2021/10/04 06:27:40;;;;;;;9.23;1.35;;;12.20;99.90;;;11.83;100.00;100981.00;4118538;28;20027;-70
2021/10/04 06:29:42;;;;;;;7.70;1.30;;;12.30;99.90;;;11.83;100.00;100968.59;4119695;28;20054;-70
2021/10/04 06:31:43;;;;;;;4.28;1.42;;;12.30;99.90;;;11.84;100.00;100980.00;4102743;28;20038;-71
2021/10/04 06:33:44;;;;;;;5.13;1.08;;;12.30;99.90;;;11.85;100.00;100981.69;4118706;28;20093;-71
2021/10/04 06:35:47;;;;;;;1.98;1.00;;;12.30;99.90;;;11.89;100.00;100980.34;4117953;28;20038;-70
2021/10/04 06:37:48;;;;;;;5.68;1.60;;;12.40;99.90;;;11.82;100.00;100974.91;4118074;28;20118;-70
2021/10/04 06:39:49;;;;;;;4.50;1.52;;;12.40;99.90;;;11.74;100.00;100977.47;4118913;28;20026;-70
2021/10/04 06:41:50;;;;;;;2.97;1.52;;;12.40;99.90;;;11.71;100.00;100974.34;4118539;28;20406;-71
2021/10/04 06:43:51;;;;;;;5.15;1.85;;;12.30;99.90;;;11.85;100.00;100977.22;4119376;28;20058;-70
2021/10/04 06:45:52;;;;;;;6.68;2.58;;;12.40;99.90;;;11.91;100.00;100978.41;4119841;28;20031;-70
2021/10/04 06:47:53;;;;;;;5.57;1.73;;;12.50;99.90;;;11.99;100.00;100973.16;4118683;28;20031;-70
2021/10/04 06:49:55;;;;;;;4.00;1.50;;;12.50;99.90;;;12.03;100.00;100983.25;4118213;28;20035;-70
2021/10/04 06:51:56;;;;;;;5.95;2.05;;;12.60;99.90;;;12.08;100.00;100975.66;4150819;28;20157;-70
2021/10/04 06:53:57;;;;;;;6.30;2.20;;;12.60;99.90;;;12.12;100.00;100978.81;4117202;28;20034;-69
2021/10/04 06:55:58;;;;;;;4.65;1.25;;;12.70;99.90;;;12.18;100.00;100983.47;4117644;28;20060;-70
2021/10/04 06:57:59;;;;;;;6.93;2.40;;;12.70;99.90;;;12.35;100.00;100986.97;4117849;28;20120;-70
2021/10/04 06:59:59;;;;;;;7.90;1.60;;;12.80;99.90;;;12.49;100.00;100976.59;4117836;28;20034;-70
2021/10/04 07:02:02;;;;;;;7.25;2.35;;;12.90;99.90;;;12.50;100.00;100990.66;4116598;28;20041;-70
2021/10/04 07:04:04;;;;;;;7.60;2.15;;;13.00;99.90;;;12.60;100.00;100986.06;4116527;28;20033;-70
2021/10/04 07:06:05;;;;;;;8.32;2.03;;;13.10;99.90;;;12.57;100.00;100983.72;4117418;28;20039;-70
2021/10/04 07:08:06;;;;;;;9.90;3.75;;;13.00;99.90;;;12.50;100.00;100982.72;4116580;28;20027;-74
2021/10/04 07:10:08;;;;;;;8.90;2.03;;;13.10;99.90;;;12.48;100.00;100990.84;4116152;28;20059;-74
2021/10/04 07:12:09;;;;;;;4.90;1.70;;;13.10;99.90;;;12.54;100.00;100979.59;4116551;28;20030;-74
2021/10/04 07:14:10;;;;;;;8.57;3.20;;;13.20;99.90;;;12.61;100.00;100985.88;4116470;28;20058;-74
2021/10/04 07:16:12;;;;;;;5.72;1.67;;;13.20;99.90;;;12.70;100.00;100992.00;4116542;28;20046;-74
2021/10/04 07:18:13;;;;;;;9.95;2.30;;;13.30;99.90;;;12.72;100.00;100990.03;4100223;28;20129;-74
2021/10/04 07:20:14;;;;;;;6.00;1.73;;;13.40;99.90;;;12.78;100.00;100987.53;4116573;28;20552;-74
2021/10/04 07:22:15;;;;;;;12.32;1.35;;;13.40;99.90;;;12.93;100.00;100990.38;4116421;28;20080;-74
2021/10/04 07:24:16;;;;;;;6.90;1.55;;;13.50;99.90;;;13.01;100.00;100984.25;4117625;28;20062;-74
2021/10/04 07:26:18;;;;;;;6.88;1.50;;;13.60;99.90;;;13.10;100.00;100989.44;4100222;28;20077;-74
2021/10/04 07:28:19;;;;;;;8.52;2.03;;;13.80;99.90;;;13.32;100.00;100987.91;4117650;28;20565;-74
2021/10/04 07:30:20;;;;;;;9.15;2.47;;;13.90;99.90;;;13.48;100.00;101000.31;4117413;28;20031;-74
2021/10/04 07:32:21;;;;;;;7.20;1.58;;;14.10;99.90;;;13.44;100.00;100989.19;4117431;28;20055;-74
2021/10/04 07:34:22;;;;;;;8.50;1.80;;;14.20;99.90;;;13.51;100.00;100992.84;4099948;28;20039;-74
2021/10/04 07:36:23;;;;;;;11.45;2.42;;;14.30;99.90;;;13.49;100.00;100989.53;4116380;28;20030;-74
2021/10/04 07:38:24;;;;;;;7.18;1.92;;;14.30;99.90;;;13.59;100.00;100994.66;4117432;28;20106;-74
2021/10/04 07:40:27;;;;;;;10.70;2.40;;;14.30;99.90;;;13.60;100.00;100998.94;4116269;28;20019;-74
2021/10/04 07:42:28;;;;;;;8.40;2.25;;;14.20;99.90;;;13.46;100.00;100994.34;4115966;28;20541;-74
2021/10/04 07:44:29;;;;;;;7.57;1.73;;;14.20;99.90;;;13.43;100.00;101003.47;4116254;28;20114;-74
2021/10/04 07:46:30;;;;;;;10.50;1.95;;;14.10;99.90;;;13.32;100.00;100997.69;4132537;28;20099;-74
2021/10/04 07:48:32;;;;;;;8.05;2.28;;;13.90;99.90;;;13.32;100.00;100993.19;4116524;28;20031;-74
2021/10/04 07:50:33;;;;;;;10.85;2.70;;;13.90;99.90;;;13.32;100.00;100989.75;4120073;28;20118;-74
2021/10/04 07:52:34;;;;;;;7.78;1.38;;;13.90;99.90;;;13.25;100.00;100987.75;4118947;28;20126;-74
2021/10/04 07:54:35;;;;;;;5.05;1.70;;;13.80;99.90;;;13.34;100.00;100998.34;4120196;28;20102;-74
2021/10/04 07:56:39;;;;;;;11.07;1.77;;;13.80;99.90;;;13.28;100.00;100990.06;4120080;28;20049;-74
2021/10/04 07:58:39;;;;;;;11.47;2.50;;;13.80;99.90;;;13.26;100.00;100996.53;4118805;28;20023;-74
2021/10/04 08:00:41;;;;;;;11.32;2.08;;;13.80;99.90;;;13.15;100.00;100995.03;4120123;28;20274;-74
2021/10/04 08:02:42;;;;;;;9.68;2.20;;;13.80;99.90;;;13.21;100.00;100994.38;4118677;28;20027;-74
2021/10/04 08:04:43;;;;;;;5.78;1.38;;;13.80;99.90;;;13.32;100.00;100994.03;4120030;28;20494;-74
2021/10/04 08:06:44;;;;;;;6.45;1.70;;;13.80;99.90;;;13.32;100.00;100990.53;4134652;28;20026;-74
2021/10/04 08:08:45;;;;;;;12.73;1.80;;;13.90;99.90;;;13.56;100.00;101002.97;4118904;28;20046;-74
2021/10/04 08:10:46;;;;;;;5.82;1.67;;;14.00;99.90;;;13.58;100.00;101001.78;4134718;28;20019;-74
2021/10/04 08:12:47;;;;;;;7.40;1.63;;;14.10;99.90;;;13.77;100.00;101001.38;4118582;28;20035;-74
2021/10/04 08:14:48;;;;;;;8.15;1.90;;;14.30;99.90;;;13.94;100.00;100990.75;4134609;28;20394;-74
2021/10/04 08:16:49;;;;;;;7.47;2.58;;;14.50;99.90;;;13.97;100.00;101003.66;4119841;28;20109;-74
2021/10/04 08:18:54;;;;;;;8.38;2.58;;;14.70;99.90;;;14.01;100.00;100997.81;4119877;28;20027;-74